sensor_id;sensor_type;location;lat;lon;timestamp;temperature;humidity
5041;DHT22;2539;52.568;13.364;2023-05-25T00:00:09;11.00;99.90
5041;DHT22;2539;52.568;13.364;2023-05-25T00:02:37;11.00;99.90
5041;DHT22;2539;52.568;13.364;2023-05-25T00:05:06;11.10;99.90
5041;DHT22;2539;52.568;13.364;2023-05-25T00:10:04;11.20;99.90
5041;DHT22;2539;52.568;13.364;2023-05-25T00:12:32;11.30;99.90
5041;DHT22;2539;52.568;13.364;2023-05-25T00:14:59;11.40;99.90
5041;DHT22;2539;52.568;13.364;2023-05-25T00:19:57;11.60;99.90
5041;DHT22;2539;52.568;13.364;2023-05-25T00:22:36;11.60;99.90
5041;DHT22;2539;52.568;13.364;2023-05-25T00:25:05;11.70;99.90
5041;DHT22;2539;52.568;13.364;2023-05-25T00:27:32;11.70;99.90
5041;DHT22;2539;52.568;13.364;2023-05-25T00:32:26;11.20;99.90
5041;DHT22;2539;52.568;13.364;2023-05-25T00:34:53;11.60;99.90
5041;DHT22;2539;52.568;13.364;2023-05-25T00:39:46;11.60;99.90
5041;DHT22;2539;52.568;13.364;2023-05-25T00:42:12;11.60;99.90
5041;DHT22;2539;52.568;13.364;2023-05-25T00:44:38;11.50;99.90
5041;DHT22;2539;52.568;13.364;2023-05-25T00:49:34;11.40;99.90
5041;DHT22;2539;52.568;13.364;2023-05-25T00:57:01;11.30;99.90
5041;DHT22;2539;52.568;13.364;2023-05-25T00:59:34;11.20;99.90
5041;DHT22;2539;52.568;13.364;2023-05-25T01:02:03;11.20;99.90
5041;DHT22;2539;52.568;13.364;2023-05-25T01:04:33;11.10;99.90
5041;DHT22;2539;52.568;13.364;2023-05-25T01:07:02;11.10;99.90
5041;DHT22;2539;52.568;13.364;2023-05-25T01:09:29;11.00;99.90
5041;DHT22;2539;52.568;13.364;2023-05-25T01:12:01;11.00;99.90
5041;DHT22;2539;52.568;13.364;2023-05-25T01:19:21;11.00;99.90
5041;DHT22;2539;52.568;13.364;2023-05-25T01:22:00;10.90;99.90
5041;DHT22;2539;52.568;13.364;2023-05-25T01:24:33;10.90;99.90
5041;DHT22;2539;52.568;13.364;2023-05-25T01:27:39;10.90;99.90
5041;DHT22;2539;52.568;13.364;2023-05-25T01:30:09;10.80;99.90
5041;DHT22;2539;52.568;13.364;2023-05-25T01:32:37;10.80;99.90
5041;DHT22;2539;52.568;13.364;2023-05-25T01:35:05;10.80;99.90
5041;DHT22;2539;52.568;13.364;2023-05-25T01:37:31;10.70;99.90
5041;DHT22;2539;52.568;13.364;2023-05-25T01:40:03;10.70;99.90
5041;DHT22;2539;52.568;13.364;2023-05-25T01:44:58;10.60;99.90
5041;DHT22;2539;52.568;13.364;2023-05-25T01:47:32;10.50;99.90
5041;DHT22;2539;52.568;13.364;2023-05-25T01:50:21;10.50;99.90
5041;DHT22;2539;52.568;13.364;2023-05-25T01:53:01;10.50;99.90
5041;DHT22;2539;52.568;13.364;2023-05-25T01:55:31;10.50;99.90
5041;DHT22;2539;52.568;13.364;2023-05-25T01:57:58;10.50;99.90
5041;DHT22;2539;52.568;13.364;2023-05-25T02:00:27;10.40;99.90
5041;DHT22;2539;52.568;13.364;2023-05-25T02:12:48;10.30;99.90
5041;DHT22;2539;52.568;13.364;2023-05-25T02:15:14;10.30;99.90
5041;DHT22;2539;52.568;13.364;2023-05-25T02:20:08;10.30;99.90
5041;DHT22;2539;52.568;13.364;2023-05-25T02:25:03;10.20;99.90
5041;DHT22;2539;52.568;13.364;2023-05-25T02:27:29;10.20;99.90
5041;DHT22;2539;52.568;13.364;2023-05-25T02:29:55;10.20;99.90
5041;DHT22;2539;52.568;13.364;2023-05-25T02:32:21;10.10;99.90
5041;DHT22;2539;52.568;13.364;2023-05-25T02:37:14;10.10;99.90
5041;DHT22;2539;52.568;13.364;2023-05-25T02:42:07;10.10;99.90
5041;DHT22;2539;52.568;13.364;2023-05-25T02:49:27;10.00;99.90
5041;DHT22;2539;52.568;13.364;2023-05-25T03:01:41;9.90;99.90
5041;DHT22;2539;52.568;13.364;2023-05-25T03:11:30;10.00;99.90
5041;DHT22;2539;52.568;13.364;2023-05-25T03:21:17;10.10;99.90
5041;DHT22;2539;52.568;13.364;2023-05-25T03:23:43;10.10;99.90
5041;DHT22;2539;52.568;13.364;2023-05-25T03:28:36;10.20;99.90
5041;DHT22;2539;52.568;13.364;2023-05-25T03:38:23;10.30;99.90
5041;DHT22;2539;52.568;13.364;2023-05-25T03:50:36;10.40;99.90
5041;DHT22;2539;52.568;13.364;2023-05-25T04:05:15;12.10;99.90
5041;DHT22;2539;52.568;13.364;2023-05-25T04:07:41;12.60;99.90
5041;DHT22;2539;52.568;13.364;2023-05-25T04:10:08;12.10;99.90
5041;DHT22;2539;52.568;13.364;2023-05-25T04:12:34;11.80;99.90
5041;DHT22;2539;52.568;13.364;2023-05-25T04:15:01;12.00;99.90
5041;DHT22;2539;52.568;13.364;2023-05-25T04:17:29;12.70;99.90
5041;DHT22;2539;52.568;13.364;2023-05-25T04:19:55;13.30;99.90
5041;DHT22;2539;52.568;13.364;2023-05-25T04:22:22;13.80;99.90
5041;DHT22;2539;52.568;13.364;2023-05-25T04:24:48;12.90;99.90
5041;DHT22;2539;52.568;13.364;2023-05-25T04:27:15;12.60;99.90
5041;DHT22;2539;52.568;13.364;2023-05-25T04:34:34;11.80;99.90
5041;DHT22;2539;52.568;13.364;2023-05-25T04:37:01;11.40;99.90
5041;DHT22;2539;52.568;13.364;2023-05-25T04:39:31;11.40;99.90
5041;DHT22;2539;52.568;13.364;2023-05-25T04:41:58;11.40;99.90
5041;DHT22;2539;52.568;13.364;2023-05-25T04:44:26;11.30;99.90
5041;DHT22;2539;52.568;13.364;2023-05-25T04:51:48;11.30;99.90
5041;DHT22;2539;52.568;13.364;2023-05-25T04:59:08;11.50;99.90
5041;DHT22;2539;52.568;13.364;2023-05-25T05:04:06;11.60;99.90
5041;DHT22;2539;52.568;13.364;2023-05-25T05:06:33;11.70;99.90
5041;DHT22;2539;52.568;13.364;2023-05-25T05:09:00;11.70;99.90
5041;DHT22;2539;52.568;13.364;2023-05-25T05:11:27;11.80;99.90
5041;DHT22;2539;52.568;13.364;2023-05-25T05:13:54;11.80;99.90
5041;DHT22;2539;52.568;13.364;2023-05-25T05:16:21;11.90;99.90
5041;DHT22;2539;52.568;13.364;2023-05-25T05:18:47;11.80;99.90
5041;DHT22;2539;52.568;13.364;2023-05-25T05:23:44;11.90;99.90
5041;DHT22;2539;52.568;13.364;2023-05-25T05:28:40;12.00;99.90
5041;DHT22;2539;52.568;13.364;2023-05-25T05:35:58;12.10;99.90
5041;DHT22;2539;52.568;13.364;2023-05-25T05:38:26;12.30;99.90
5041;DHT22;2539;52.568;13.364;2023-05-25T05:40:52;12.20;99.90
5041;DHT22;2539;52.568;13.364;2023-05-25T05:45:45;12.30;99.90
5041;DHT22;2539;52.568;13.364;2023-05-25T05:50:38;12.60;99.90
5041;DHT22;2539;52.568;13.364;2023-05-25T05:53:05;12.80;99.90
5041;DHT22;2539;52.568;13.364;2023-05-25T05:55:32;12.80;99.90
5041;DHT22;2539;52.568;13.364;2023-05-25T06:00:25;13.10;99.90
5041;DHT22;2539;52.568;13.364;2023-05-25T06:02:51;13.30;99.90
5041;DHT22;2539;52.568;13.364;2023-05-25T06:05:18;13.20;99.90
5041;DHT22;2539;52.568;13.364;2023-05-25T06:07:45;13.40;99.90
5041;DHT22;2539;52.568;13.364;2023-05-25T06:10:11;13.60;99.90
5041;DHT22;2539;52.568;13.364;2023-05-25T06:12:38;13.70;99.90
5041;DHT22;2539;52.568;13.364;2023-05-25T06:15:04;13.80;99.90
5041;DHT22;2539;52.568;13.364;2023-05-25T06:17:30;12.90;99.90
5041;DHT22;2539;52.568;13.364;2023-05-25T06:19:56;13.90;99.90
5041;DHT22;2539;52.568;13.364;2023-05-25T06:22:21;13.90;99.90
5041;DHT22;2539;52.568;13.364;2023-05-25T06:24:50;14.00;99.90
5041;DHT22;2539;52.568;13.364;2023-05-25T06:27:16;14.00;99.90
5041;DHT22;2539;52.568;13.364;2023-05-25T06:29:43;14.00;99.90
5041;DHT22;2539;52.568;13.364;2023-05-25T06:32:09;14.00;99.90
5041;DHT22;2539;52.568;13.364;2023-05-25T06:34:36;14.00;99.90
5041;DHT22;2539;52.568;13.364;2023-05-25T06:37:02;14.10;99.90
5041;DHT22;2539;52.568;13.364;2023-05-25T06:39:28;14.20;99.90
5041;DHT22;2539;52.568;13.364;2023-05-25T06:41:54;14.30;99.90
5041;DHT22;2539;52.568;13.364;2023-05-25T06:44:21;14.40;99.90
5041;DHT22;2539;52.568;13.364;2023-05-25T06:46:47;14.60;99.90
5041;DHT22;2539;52.568;13.364;2023-05-25T06:49:13;14.50;99.90
5041;DHT22;2539;52.568;13.364;2023-05-25T06:51:39;14.70;99.90
5041;DHT22;2539;52.568;13.364;2023-05-25T06:54:06;14.80;99.90
5041;DHT22;2539;52.568;13.364;2023-05-25T06:56:33;14.90;99.90
5041;DHT22;2539;52.568;13.364;2023-05-25T06:58:59;15.00;99.90
5041;DHT22;2539;52.568;13.364;2023-05-25T07:01:26;15.20;99.90
5041;DHT22;2539;52.568;13.364;2023-05-25T07:03:52;15.10;99.90
5041;DHT22;2539;52.568;13.364;2023-05-25T07:06:19;15.10;99.90
5041;DHT22;2539;52.568;13.364;2023-05-25T07:08:46;15.20;99.90
5041;DHT22;2539;52.568;13.364;2023-05-25T07:11:12;15.40;99.90
5041;DHT22;2539;52.568;13.364;2023-05-25T07:13:39;15.40;99.90
5041;DHT22;2539;52.568;13.364;2023-05-25T07:16:05;15.50;99.90
5041;DHT22;2539;52.568;13.364;2023-05-25T07:18:32;15.50;99.90
5041;DHT22;2539;52.568;13.364;2023-05-25T07:20:58;15.60;99.90
5041;DHT22;2539;52.568;13.364;2023-05-25T07:23:24;15.50;99.90
5041;DHT22;2539;52.568;13.364;2023-05-25T07:25:50;15.40;99.90
5041;DHT22;2539;52.568;13.364;2023-05-25T07:28:16;15.50;99.90
5041;DHT22;2539;52.568;13.364;2023-05-25T07:30:41;15.80;99.90
5041;DHT22;2539;52.568;13.364;2023-05-25T07:33:07;15.90;99.90
5041;DHT22;2539;52.568;13.364;2023-05-25T07:35:33;16.00;99.90
5041;DHT22;2539;52.568;13.364;2023-05-25T07:38:02;16.00;99.90
5041;DHT22;2539;52.568;13.364;2023-05-25T07:40:29;16.10;99.90
5041;DHT22;2539;52.568;13.364;2023-05-25T07:42:56;16.10;99.90
5041;DHT22;2539;52.568;13.364;2023-05-25T07:45:22;16.20;99.90
5041;DHT22;2539;52.568;13.364;2023-05-25T07:47:48;15.90;99.90
5041;DHT22;2539;52.568;13.364;2023-05-25T07:50:15;16.00;99.90
5041;DHT22;2539;52.568;13.364;2023-05-25T07:52:42;15.80;99.90
5041;DHT22;2539;52.568;13.364;2023-05-25T07:55:08;15.90;99.90
5041;DHT22;2539;52.568;13.364;2023-05-25T07:57:35;16.00;99.90
5041;DHT22;2539;52.568;13.364;2023-05-25T08:00:02;16.00;99.90
5041;DHT22;2539;52.568;13.364;2023-05-25T08:02:30;16.00;99.90
5041;DHT22;2539;52.568;13.364;2023-05-25T08:04:56;16.30;99.90
5041;DHT22;2539;52.568;13.364;2023-05-25T08:07:23;16.10;99.90
5041;DHT22;2539;52.568;13.364;2023-05-25T08:09:49;16.40;99.90
5041;DHT22;2539;52.568;13.364;2023-05-25T08:12:15;16.50;99.90
5041;DHT22;2539;52.568;13.364;2023-05-25T08:14:41;16.60;99.90
5041;DHT22;2539;52.568;13.364;2023-05-25T08:17:06;16.50;99.90
5041;DHT22;2539;52.568;13.364;2023-05-25T08:19:33;16.60;99.90
5041;DHT22;2539;52.568;13.364;2023-05-25T08:21:59;16.60;99.90
5041;DHT22;2539;52.568;13.364;2023-05-25T08:24:25;16.40;99.90
5041;DHT22;2539;52.568;13.364;2023-05-25T08:26:51;16.50;99.90
5041;DHT22;2539;52.568;13.364;2023-05-25T08:29:18;16.60;99.90
5041;DHT22;2539;52.568;13.364;2023-05-25T08:31:44;16.90;99.90
5041;DHT22;2539;52.568;13.364;2023-05-25T08:34:15;17.00;99.90
5041;DHT22;2539;52.568;13.364;2023-05-25T08:36:42;17.20;99.90
5041;DHT22;2539;52.568;13.364;2023-05-25T08:39:08;17.20;99.90
5041;DHT22;2539;52.568;13.364;2023-05-25T08:41:36;17.00;99.90
5041;DHT22;2539;52.568;13.364;2023-05-25T08:44:06;17.10;99.90
5041;DHT22;2539;52.568;13.364;2023-05-25T08:46:34;17.30;99.90
5041;DHT22;2539;52.568;13.364;2023-05-25T08:49:08;17.30;99.90
5041;DHT22;2539;52.568;13.364;2023-05-25T08:51:36;17.40;99.90
5041;DHT22;2539;52.568;13.364;2023-05-25T08:54:08;17.30;99.90
5041;DHT22;2539;52.568;13.364;2023-05-25T08:57:00;17.50;99.90
5041;DHT22;2539;52.568;13.364;2023-05-25T08:59:49;17.60;99.90
5041;DHT22;2539;52.568;13.364;2023-05-25T09:02:49;17.50;99.90
5041;DHT22;2539;52.568;13.364;2023-05-25T09:05:16;18.00;99.90
5041;DHT22;2539;52.568;13.364;2023-05-25T09:07:44;17.60;99.90
5041;DHT22;2539;52.568;13.364;2023-05-25T09:10:11;17.20;99.90
5041;DHT22;2539;52.568;13.364;2023-05-25T09:12:38;17.20;99.90
5041;DHT22;2539;52.568;13.364;2023-05-25T09:15:04;17.10;99.90
5041;DHT22;2539;52.568;13.364;2023-05-25T09:17:31;17.20;99.90
5041;DHT22;2539;52.568;13.364;2023-05-25T09:19:58;17.60;99.90
5041;DHT22;2539;52.568;13.364;2023-05-25T09:22:24;18.00;99.90
5041;DHT22;2539;52.568;13.364;2023-05-25T09:24:52;18.70;99.90
5041;DHT22;2539;52.568;13.364;2023-05-25T09:27:20;18.70;99.90
5041;DHT22;2539;52.568;13.364;2023-05-25T09:29:50;19.00;99.90
5041;DHT22;2539;52.568;13.364;2023-05-25T09:32:17;19.10;99.90
5041;DHT22;2539;52.568;13.364;2023-05-25T09:34:45;18.40;99.90
5041;DHT22;2539;52.568;13.364;2023-05-25T09:37:15;18.30;99.90
5041;DHT22;2539;52.568;13.364;2023-05-25T09:39:43;17.80;99.90
5041;DHT22;2539;52.568;13.364;2023-05-25T09:42:10;17.30;99.90
5041;DHT22;2539;52.568;13.364;2023-05-25T09:44:37;17.00;99.90
5041;DHT22;2539;52.568;13.364;2023-05-25T09:47:04;16.90;99.90
5041;DHT22;2539;52.568;13.364;2023-05-25T09:49:31;16.90;99.90
5041;DHT22;2539;52.568;13.364;2023-05-25T09:51:58;17.00;99.90
5041;DHT22;2539;52.568;13.364;2023-05-25T09:54:25;17.30;99.90
5041;DHT22;2539;52.568;13.364;2023-05-25T09:56:52;17.40;99.90
5041;DHT22;2539;52.568;13.364;2023-05-25T09:59:18;17.20;99.90
5041;DHT22;2539;52.568;13.364;2023-05-25T10:01:43;17.40;99.90
5041;DHT22;2539;52.568;13.364;2023-05-25T10:04:09;17.40;99.90
5041;DHT22;2539;52.568;13.364;2023-05-25T10:06:37;17.50;99.90
5041;DHT22;2539;52.568;13.364;2023-05-25T10:09:05;17.40;99.90
5041;DHT22;2539;52.568;13.364;2023-05-25T10:11:32;17.40;99.90
5041;DHT22;2539;52.568;13.364;2023-05-25T10:14:05;17.40;99.90
5041;DHT22;2539;52.568;13.364;2023-05-25T10:16:32;17.40;99.90
5041;DHT22;2539;52.568;13.364;2023-05-25T10:19:11;17.40;99.90
5041;DHT22;2539;52.568;13.364;2023-05-25T10:21:38;20.20;99.90
5041;DHT22;2539;52.568;13.364;2023-05-25T10:24:20;17.30;99.90
5041;DHT22;2539;52.568;13.364;2023-05-25T10:26:53;17.40;99.90
5041;DHT22;2539;52.568;13.364;2023-05-25T10:29:19;17.70;99.90
5041;DHT22;2539;52.568;13.364;2023-05-25T10:31:47;18.00;99.90
5041;DHT22;2539;52.568;13.364;2023-05-25T10:34:14;18.00;99.90
5041;DHT22;2539;52.568;13.364;2023-05-25T10:39:09;18.70;99.90
5041;DHT22;2539;52.568;13.364;2023-05-25T10:46:28;19.10;99.90
5041;DHT22;2539;52.568;13.364;2023-05-25T10:48:55;18.80;99.90
5041;DHT22;2539;52.568;13.364;2023-05-25T10:51:40;18.70;99.90
5041;DHT22;2539;52.568;13.364;2023-05-25T10:54:06;18.50;99.90
5041;DHT22;2539;52.568;13.364;2023-05-25T10:56:33;18.90;99.90
5041;DHT22;2539;52.568;13.364;2023-05-25T10:58:59;17.60;99.90
5041;DHT22;2539;52.568;13.364;2023-05-25T11:01:29;17.80;99.90
5041;DHT22;2539;52.568;13.364;2023-05-25T11:09:02;18.10;99.90
5041;DHT22;2539;52.568;13.364;2023-05-25T11:14:26;18.10;99.90
5041;DHT22;2539;52.568;13.364;2023-05-25T11:17:10;17.80;99.90
5041;DHT22;2539;52.568;13.364;2023-05-25T11:19:48;18.10;99.90
5041;DHT22;2539;52.568;13.364;2023-05-25T11:22:20;18.20;99.90
5041;DHT22;2539;52.568;13.364;2023-05-25T11:24:50;18.20;99.90
5041;DHT22;2539;52.568;13.364;2023-05-25T11:27:28;18.30;99.90
5041;DHT22;2539;52.568;13.364;2023-05-25T11:29:55;18.30;99.90
5041;DHT22;2539;52.568;13.364;2023-05-25T11:32:23;18.70;99.90
5041;DHT22;2539;52.568;13.364;2023-05-25T11:34:52;18.70;99.90
5041;DHT22;2539;52.568;13.364;2023-05-25T11:37:20;18.80;99.90
5041;DHT22;2539;52.568;13.364;2023-05-25T11:39:51;19.00;99.90
5041;DHT22;2539;52.568;13.364;2023-05-25T11:42:19;19.10;99.90
5041;DHT22;2539;52.568;13.364;2023-05-25T11:44:46;19.40;99.90
5041;DHT22;2539;52.568;13.364;2023-05-25T11:47:13;19.30;99.90
5041;DHT22;2539;52.568;13.364;2023-05-25T11:49:40;18.80;99.90
5041;DHT22;2539;52.568;13.364;2023-05-25T11:52:07;18.70;99.90
5041;DHT22;2539;52.568;13.364;2023-05-25T11:54:34;18.80;99.90
5041;DHT22;2539;52.568;13.364;2023-05-25T11:57:01;18.70;99.90
5041;DHT22;2539;52.568;13.364;2023-05-25T11:59:28;19.20;99.90
5041;DHT22;2539;52.568;13.364;2023-05-25T12:02:00;19.00;99.90
5041;DHT22;2539;52.568;13.364;2023-05-25T12:04:27;18.80;99.90
5041;DHT22;2539;52.568;13.364;2023-05-25T12:07:04;18.70;99.90
5041;DHT22;2539;52.568;13.364;2023-05-25T12:09:31;18.70;99.90
5041;DHT22;2539;52.568;13.364;2023-05-25T12:11:58;18.70;99.90
5041;DHT22;2539;52.568;13.364;2023-05-25T12:14:24;18.70;99.90
5041;DHT22;2539;52.568;13.364;2023-05-25T12:16:51;18.80;99.90
5041;DHT22;2539;52.568;13.364;2023-05-25T12:19:18;19.00;99.90
5041;DHT22;2539;52.568;13.364;2023-05-25T12:21:45;19.50;99.90
5041;DHT22;2539;52.568;13.364;2023-05-25T12:24:13;18.90;99.90
5041;DHT22;2539;52.568;13.364;2023-05-25T12:26:47;18.60;99.90
5041;DHT22;2539;52.568;13.364;2023-05-25T12:29:13;18.40;99.90
5041;DHT22;2539;52.568;13.364;2023-05-25T12:36:54;17.90;99.90
5041;DHT22;2539;52.568;13.364;2023-05-25T12:41:58;17.90;99.90
5041;DHT22;2539;52.568;13.364;2023-05-25T12:44:34;17.90;99.90
5041;DHT22;2539;52.568;13.364;2023-05-25T12:47:18;18.00;99.90
5041;DHT22;2539;52.568;13.364;2023-05-25T12:58:04;18.30;99.90
5041;DHT22;2539;52.568;13.364;2023-05-25T13:00:33;18.50;99.90
5041;DHT22;2539;52.568;13.364;2023-05-25T13:03:00;19.00;99.90
5041;DHT22;2539;52.568;13.364;2023-05-25T13:05:28;18.70;99.90
5041;DHT22;2539;52.568;13.364;2023-05-25T13:07:56;18.20;99.90
5041;DHT22;2539;52.568;13.364;2023-05-25T13:10:23;18.20;99.90
5041;DHT22;2539;52.568;13.364;2023-05-25T13:12:51;18.50;99.90
5041;DHT22;2539;52.568;13.364;2023-05-25T13:15:19;18.90;99.90
5041;DHT22;2539;52.568;13.364;2023-05-25T13:17:49;18.50;99.90
5041;DHT22;2539;52.568;13.364;2023-05-25T13:20:18;19.00;99.90
5041;DHT22;2539;52.568;13.364;2023-05-25T13:22:45;19.50;99.90
5041;DHT22;2539;52.568;13.364;2023-05-25T13:25:12;19.60;99.90
5041;DHT22;2539;52.568;13.364;2023-05-25T13:27:45;19.60;99.90
5041;DHT22;2539;52.568;13.364;2023-05-25T13:30:12;19.20;99.90
5041;DHT22;2539;52.568;13.364;2023-05-25T13:32:39;19.30;99.90
5041;DHT22;2539;52.568;13.364;2023-05-25T13:35:05;19.50;99.90
5041;DHT22;2539;52.568;13.364;2023-05-25T13:37:33;20.00;99.90
5041;DHT22;2539;52.568;13.364;2023-05-25T13:42:26;19.50;99.90
5041;DHT22;2539;52.568;13.364;2023-05-25T13:44:52;19.30;99.90
5041;DHT22;2539;52.568;13.364;2023-05-25T13:47:19;19.30;99.90
5041;DHT22;2539;52.568;13.364;2023-05-25T13:49:45;19.00;99.90
5041;DHT22;2539;52.568;13.364;2023-05-25T13:52:12;21.20;99.90
5041;DHT22;2539;52.568;13.364;2023-05-25T13:54:39;18.90;99.90
5041;DHT22;2539;52.568;13.364;2023-05-25T13:57:05;19.30;99.90
5041;DHT22;2539;52.568;13.364;2023-05-25T13:59:32;19.50;99.90
5041;DHT22;2539;52.568;13.364;2023-05-25T14:01:58;19.60;99.90
5041;DHT22;2539;52.568;13.364;2023-05-25T14:04:25;19.80;99.90
5041;DHT22;2539;52.568;13.364;2023-05-25T14:09:18;19.30;99.90
5041;DHT22;2539;52.568;13.364;2023-05-25T14:11:44;21.50;99.90
5041;DHT22;2539;52.568;13.364;2023-05-25T14:14:10;18.80;99.90
5041;DHT22;2539;52.568;13.364;2023-05-25T14:16:37;18.70;99.90
5041;DHT22;2539;52.568;13.364;2023-05-25T14:19:03;18.90;99.90
5041;DHT22;2539;52.568;13.364;2023-05-25T14:21:30;19.00;99.90
5041;DHT22;2539;52.568;13.364;2023-05-25T14:23:57;18.90;99.90
5041;DHT22;2539;52.568;13.364;2023-05-25T14:26:23;18.90;99.90
5041;DHT22;2539;52.568;13.364;2023-05-25T14:28:52;18.60;99.90
5041;DHT22;2539;52.568;13.364;2023-05-25T14:31:18;18.50;99.90
5041;DHT22;2539;52.568;13.364;2023-05-25T14:33:45;19.10;99.90
5041;DHT22;2539;52.568;13.364;2023-05-25T14:36:11;19.70;99.90
5041;DHT22;2539;52.568;13.364;2023-05-25T14:38:37;19.90;99.90
5041;DHT22;2539;52.568;13.364;2023-05-25T14:41:04;20.10;99.90
5041;DHT22;2539;52.568;13.364;2023-05-25T14:43:30;20.70;99.90
5041;DHT22;2539;52.568;13.364;2023-05-25T14:45:56;23.30;99.90
5041;DHT22;2539;52.568;13.364;2023-05-25T14:48:22;21.20;99.70
5041;DHT22;2539;52.568;13.364;2023-05-25T14:50:50;21.80;98.90
5041;DHT22;2539;52.568;13.364;2023-05-25T14:53:16;22.10;98.00
5041;DHT22;2539;52.568;13.364;2023-05-25T14:55:42;21.80;97.90
5041;DHT22;2539;52.568;13.364;2023-05-25T14:58:09;22.20;97.50
5041;DHT22;2539;52.568;13.364;2023-05-25T15:00:36;21.20;97.50
5041;DHT22;2539;52.568;13.364;2023-05-25T15:03:02;21.70;97.50
5041;DHT22;2539;52.568;13.364;2023-05-25T15:05:28;21.20;97.70
5041;DHT22;2539;52.568;13.364;2023-05-25T15:07:54;21.70;96.50
5041;DHT22;2539;52.568;13.364;2023-05-25T15:10:21;22.20;96.10
5041;DHT22;2539;52.568;13.364;2023-05-25T15:12:47;21.00;97.00
5041;DHT22;2539;52.568;13.364;2023-05-25T15:15:14;20.80;97.50
5041;DHT22;2539;52.568;13.364;2023-05-25T15:17:40;21.10;97.40
5041;DHT22;2539;52.568;13.364;2023-05-25T15:20:07;20.90;97.80
5041;DHT22;2539;52.568;13.364;2023-05-25T15:22:33;21.70;96.60
5041;DHT22;2539;52.568;13.364;2023-05-25T15:25:00;21.40;96.30
5041;DHT22;2539;52.568;13.364;2023-05-25T15:27:26;22.00;95.50
5041;DHT22;2539;52.568;13.364;2023-05-25T15:29:53;22.00;94.90
5041;DHT22;2539;52.568;13.364;2023-05-25T15:32:19;22.20;94.90
5041;DHT22;2539;52.568;13.364;2023-05-25T15:34:45;21.90;94.60
5041;DHT22;2539;52.568;13.364;2023-05-25T15:37:12;22.20;95.50
5041;DHT22;2539;52.568;13.364;2023-05-25T15:39:38;22.50;94.60
5041;DHT22;2539;52.568;13.364;2023-05-25T15:42:04;22.60;94.10
5041;DHT22;2539;52.568;13.364;2023-05-25T15:44:31;22.20;94.00
5041;DHT22;2539;52.568;13.364;2023-05-25T15:46:57;21.90;93.80
5041;DHT22;2539;52.568;13.364;2023-05-25T15:49:23;22.70;93.80
5041;DHT22;2539;52.568;13.364;2023-05-25T15:51:50;22.70;93.20
5041;DHT22;2539;52.568;13.364;2023-05-25T15:54:18;22.50;92.90
5041;DHT22;2539;52.568;13.364;2023-05-25T15:56:44;22.00;94.00
5041;DHT22;2539;52.568;13.364;2023-05-25T15:59:11;22.00;93.60
5041;DHT22;2539;52.568;13.364;2023-05-25T16:01:37;21.70;93.80
5041;DHT22;2539;52.568;13.364;2023-05-25T16:04:03;21.90;93.70
5041;DHT22;2539;52.568;13.364;2023-05-25T16:06:30;22.50;92.80
5041;DHT22;2539;52.568;13.364;2023-05-25T16:08:57;22.10;93.60
5041;DHT22;2539;52.568;13.364;2023-05-25T16:11:24;21.60;93.40
5041;DHT22;2539;52.568;13.364;2023-05-25T16:13:52;21.70;93.20
5041;DHT22;2539;52.568;13.364;2023-05-25T16:16:18;22.80;92.00
5041;DHT22;2539;52.568;13.364;2023-05-25T16:18:45;22.10;92.80
5041;DHT22;2539;52.568;13.364;2023-05-25T16:21:12;22.30;92.30
5041;DHT22;2539;52.568;13.364;2023-05-25T16:23:38;22.10;92.50
5041;DHT22;2539;52.568;13.364;2023-05-25T16:26:05;22.00;93.80
5041;DHT22;2539;52.568;13.364;2023-05-25T16:28:35;24.10;93.80
5041;DHT22;2539;52.568;13.364;2023-05-25T16:31:03;21.60;93.10
5041;DHT22;2539;52.568;13.364;2023-05-25T16:33:31;21.70;93.50
5041;DHT22;2539;52.568;13.364;2023-05-25T16:35:58;21.60;93.30
5041;DHT22;2539;52.568;13.364;2023-05-25T16:38:24;21.70;93.60
5041;DHT22;2539;52.568;13.364;2023-05-25T16:40:51;21.50;93.20
5041;DHT22;2539;52.568;13.364;2023-05-25T16:43:17;21.50;93.40
5041;DHT22;2539;52.568;13.364;2023-05-25T16:45:43;21.20;93.50
5041;DHT22;2539;52.568;13.364;2023-05-25T16:48:10;21.00;94.00
5041;DHT22;2539;52.568;13.364;2023-05-25T16:50:36;20.60;94.20
5041;DHT22;2539;52.568;13.364;2023-05-25T16:53:02;20.70;94.70
5041;DHT22;2539;52.568;13.364;2023-05-25T16:55:28;20.50;95.30
5041;DHT22;2539;52.568;13.364;2023-05-25T16:57:55;20.40;95.90
5041;DHT22;2539;52.568;13.364;2023-05-25T17:00:21;20.00;96.40
5041;DHT22;2539;52.568;13.364;2023-05-25T17:02:47;20.20;96.60
5041;DHT22;2539;52.568;13.364;2023-05-25T17:05:14;20.10;97.00
5041;DHT22;2539;52.568;13.364;2023-05-25T17:07:40;19.90;97.60
5041;DHT22;2539;52.568;13.364;2023-05-25T17:10:07;19.80;97.80
5041;DHT22;2539;52.568;13.364;2023-05-25T17:12:33;19.70;98.00
5041;DHT22;2539;52.568;13.364;2023-05-25T17:14:59;19.70;98.10
5041;DHT22;2539;52.568;13.364;2023-05-25T17:17:25;19.50;98.70
5041;DHT22;2539;52.568;13.364;2023-05-25T17:19:51;19.60;98.50
5041;DHT22;2539;52.568;13.364;2023-05-25T17:22:17;19.30;98.70
5041;DHT22;2539;52.568;13.364;2023-05-25T17:27:10;19.20;98.90
5041;DHT22;2539;52.568;13.364;2023-05-25T17:29:36;19.10;99.40
5041;DHT22;2539;52.568;13.364;2023-05-25T17:32:03;18.90;99.90
5041;DHT22;2539;52.568;13.364;2023-05-25T17:36:56;18.80;99.90
5041;DHT22;2539;52.568;13.364;2023-05-25T17:39:22;18.70;99.90
5041;DHT22;2539;52.568;13.364;2023-05-25T17:41:48;18.50;99.90
5041;DHT22;2539;52.568;13.364;2023-05-25T17:44:15;18.40;99.90
5041;DHT22;2539;52.568;13.364;2023-05-25T17:46:42;18.40;99.90
5041;DHT22;2539;52.568;13.364;2023-05-25T17:49:09;18.30;99.90
5041;DHT22;2539;52.568;13.364;2023-05-25T17:51:35;18.20;99.90
5041;DHT22;2539;52.568;13.364;2023-05-25T17:54:03;18.10;99.90
5041;DHT22;2539;52.568;13.364;2023-05-25T17:56:29;18.70;99.90
5041;DHT22;2539;52.568;13.364;2023-05-25T17:58:56;18.20;99.90
5041;DHT22;2539;52.568;13.364;2023-05-25T18:01:22;18.10;99.90
5041;DHT22;2539;52.568;13.364;2023-05-25T18:03:48;18.10;99.90
5041;DHT22;2539;52.568;13.364;2023-05-25T18:06:15;18.10;99.90
5041;DHT22;2539;52.568;13.364;2023-05-25T18:08:42;18.00;99.90
5041;DHT22;2539;52.568;13.364;2023-05-25T18:11:08;18.00;99.90
5041;DHT22;2539;52.568;13.364;2023-05-25T18:13:34;17.90;99.90
5041;DHT22;2539;52.568;13.364;2023-05-25T18:16:00;17.80;99.90
5041;DHT22;2539;52.568;13.364;2023-05-25T18:18:27;17.80;99.90
5041;DHT22;2539;52.568;13.364;2023-05-25T18:20:53;17.80;99.90
5041;DHT22;2539;52.568;13.364;2023-05-25T18:23:19;17.70;99.90
5041;DHT22;2539;52.568;13.364;2023-05-25T18:25:47;17.70;99.90
5041;DHT22;2539;52.568;13.364;2023-05-25T18:28:13;17.60;99.90
5041;DHT22;2539;52.568;13.364;2023-05-25T18:30:41;17.50;99.90
5041;DHT22;2539;52.568;13.364;2023-05-25T18:33:06;17.50;99.90
5041;DHT22;2539;52.568;13.364;2023-05-25T18:35:34;17.60;99.90
5041;DHT22;2539;52.568;13.364;2023-05-25T18:38:00;17.40;99.90
5041;DHT22;2539;52.568;13.364;2023-05-25T18:40:25;17.40;99.90
5041;DHT22;2539;52.568;13.364;2023-05-25T18:42:52;17.30;99.90
5041;DHT22;2539;52.568;13.364;2023-05-25T18:45:18;17.20;99.90
5041;DHT22;2539;52.568;13.364;2023-05-25T18:47:44;17.20;99.90